Time;durP1;ratioP1;P1;durP2;ratioP2;P2;SDS_P1;SDS_P2;PMS_P1;PMS_P2;Temp;Humidity;BMP_temperature;BMP_pressure;BME280_temperature;BME280_humidity;BME280_pressure;Samples;Min_cycle;Max_cycle;Signal;HPM_P1;HPM_P2
2023/09/09 08:24:12;;;;;;;9.90;4.68;;;;;;;32.04;29.58;100829.87;5477935;32;404868;-70
2023/09/09 08:27:15;;;;;;;9.32;4.65;;;;;;;32.23;29.62;100832.00;5459376;32;34048;-70
2023/09/09 08:30:17;;;;;;;11.43;4.72;;;;;;;33.91;27.43;100820.59;5448589;32;35330;-64
2023/09/09 08:33:20;;;;;;;10.80;4.80;;;;;;;32.96;28.76;100823.84;5435652;32;34624;-66
2023/09/09 08:36:22;;;;;;;9.20;4.53;;;;;;;31.34;30.97;100833.00;5446780;32;34689;-71
2023/09/09 08:39:25;;;;;;;9.73;4.75;;;;;;;31.20;31.42;100821.91;5457467;32;34405;-65
2023/09/09 08:42:34;;;;;;;12.65;5.30;;;;;;;33.78;27.54;100818.59;5459432;32;34062;-67
2023/09/09 08:45:39;;;;;;;11.93;5.03;;;;;;;32.18;29.78;100820.88;5446067;32;34652;-80
2023/09/09 08:48:45;;;;;;;10.90;5.18;;;;;;;34.41;27.26;100815.75;5456412;32;34021;-78
2023/09/09 08:51:58;;;;;;;8.43;4.28;;;;;;;33.01;28.53;100826.81;5435672;32;35418;-67
2023/09/09 08:55:00;;;;;;;9.98;4.60;;;;;;;31.75;30.13;100820.72;5447645;32;34571;-79
2023/09/09 08:58:03;;;;;;;11.27;4.80;;;;;;;31.75;30.69;100822.56;5451556;32;34518;-67
2023/09/09 09:01:06;;;;;;;7.60;4.80;;;;;;;31.31;31.34;100814.41;5444296;32;34502;-66
2023/09/09 09:04:09;;;;;;;8.80;4.55;;;;;;;34.64;26.50;100812.69;5433309;32;34106;-81
2023/09/09 09:07:13;;;;;;;9.60;4.18;;;;;;;32.88;29.13;100817.50;5447180;32;33987;-66
2023/09/09 09:10:15;;;;;;;9.32;4.43;;;;;;;34.38;27.02;100814.25;5444299;32;35443;-81
2023/09/09 09:13:18;;;;;;;12.65;5.12;;;;;;;34.50;25.95;100821.91;5461292;32;34194;-67
2023/09/09 09:16:20;;;;;;;13.52;4.90;;;;;;;32.97;28.98;100820.91;5454635;32;34268;-65
2023/09/09 09:19:28;;;;;;;8.98;4.40;;;;;;;33.45;28.13;100812.12;5461557;32;34110;-81
2023/09/09 09:22:31;;;;;;;8.50;4.70;;;;;;;36.48;24.45;100805.25;5435651;32;34523;-82
2023/09/09 09:25:44;;;;;;;8.38;4.05;;;;;;;33.71;27.89;100803.28;5458727;32;35080;-74
2023/09/09 09:28:46;;;;;;;9.13;4.70;;;;;;;36.55;23.69;100799.75;5449963;32;35357;-70
2023/09/09 09:31:52;;;;;;;10.48;4.47;;;;;;;33.08;28.23;100809.50;5456917;32;34748;-73
2023/09/09 09:34:55;;;;;;;8.52;4.57;;;;;;;35.87;24.60;100792.00;5428062;32;34016;-73
2023/09/09 09:38:06;;;;;;;6.78;4.10;;;;;;;35.94;24.27;100790.16;5443878;32;34139;-73
2023/09/09 09:41:09;;;;;;;5.53;3.75;;;;;;;34.45;25.35;100798.78;5433010;32;34623;-73
2023/09/09 09:44:18;;;;;;;6.78;3.72;;;;;;;35.42;23.51;100788.38;5448360;32;34581;-74
2023/09/09 09:47:21;;;;;;;5.80;3.72;;;;;;;37.98;20.07;100780.50;5443975;32;34865;-74
2023/09/09 09:50:34;;;;;;;13.82;4.50;;;;;;;34.35;24.46;100790.13;5449418;32;34216;-78
2023/09/09 09:53:48;;;;;;;10.05;3.83;;;;;;;34.66;24.35;100784.16;5444229;32;34593;-77
2023/09/09 09:56:52;;;;;;;6.75;3.40;;;;;;;35.52;22.77;100791.50;5445425;32;34654;-77
2023/09/09 09:59:55;;;;;;;7.80;3.95;;;;;;;36.96;21.20;100788.28;5449335;32;34538;-78
2023/09/09 10:03:00;;;;;;;8.38;3.95;;;;;;;38.41;19.88;100779.53;5418949;32;34522;-77
2023/09/09 10:06:02;;;;;;;6.55;3.85;;;;;;;37.03;20.93;100786.31;5423329;32;34111;-76
2023/09/09 10:09:19;;;;;;;7.85;3.75;;;;;;;35.15;23.69;100787.53;5429983;32;35149;-76
2023/09/09 10:12:32;;;;;;;8.75;4.03;;;;;;;37.23;20.43;100783.44;5448475;32;34224;-77
2023/09/09 10:15:49;;;;;;;9.60;4.68;;;;;;;36.63;20.73;100779.47;5447166;32;34643;-78
2023/09/09 10:18:52;;;;;;;7.60;3.78;;;;;;;37.52;19.86;100781.03;5431312;32;35246;-77
2023/09/09 10:21:56;;;;;;;9.57;4.50;;;;;;;36.35;20.48;100788.88;5435797;32;34592;-77
2023/09/09 10:24:58;;;;;;;7.12;3.92;;;;;;;37.48;19.77;100782.56;5432931;32;34685;-76
2023/09/09 10:28:02;;;;;;;6.72;4.30;;;;;;;41.04;16.54;100773.69;5435978;32;35454;-77
2023/09/09 10:31:04;;;;;;;10.00;4.05;;;;;;;39.05;18.61;100771.56;5443844;32;34643;-77
2023/09/09 10:34:09;;;;;;;9.15;3.72;;;;;;;35.12;22.45;100771.56;5431676;32;35240;-77
2023/09/09 10:37:13;;;;;;;8.35;3.90;;;;;;;34.29;23.61;100773.75;5447765;32;34549;-77
2023/09/09 10:40:17;;;;;;;11.63;4.07;;;;;;;33.71;24.49;100768.66;5423102;32;33975;-72
2023/09/09 10:43:19;;;;;;;11.00;4.22;;;;;;;34.53;23.65;100772.37;5447103;32;34333;-71
2023/09/09 10:46:35;;;;;;;6.82;4.25;;;;;;;34.92;23.26;100764.25;5442450;32;34217;-83
2023/09/09 10:49:39;;;;;;;6.53;4.12;;;;;;;33.89;24.55;100757.22;5446261;32;35099;-72
2023/09/09 10:52:41;;;;;;;8.40;4.43;;;;;;;33.62;23.81;100750.78;5435354;32;34477;-81
2023/09/09 10:55:45;;;;;;;9.27;4.28;;;;;;;33.63;23.79;100755.22;5429663;32;35452;-85
2023/09/09 10:58:49;;;;;;;6.12;4.15;;;;;;;32.74;24.83;100760.38;5438312;32;34131;-85
2023/09/09 11:02:18;;;;;;;10.05;4.75;;;;;;;33.62;24.35;100748.06;5443344;32;34883;-84
2023/09/09 11:05:21;;;;;;;10.95;4.80;;;;;;;33.01;24.91;100746.00;5432171;32;34968;-72
2023/09/09 11:08:43;;;;;;;6.78;3.75;;;;;;;32.49;25.33;100752.63;5428823;32;35127;-84
2023/09/09 11:11:46;;;;;;;6.82;3.83;;;;;;;32.25;25.66;100747.50;5417200;32;34065;-83
2023/09/09 11:15:10;;;;;;;7.85;4.45;;;;;;;32.41;26.00;100749.19;5434160;32;34900;-73
2023/09/09 11:18:12;;;;;;;8.15;4.40;;;;;;;33.44;24.52;100739.59;5432096;32;34351;-77
2023/09/09 11:21:15;;;;;;;9.70;4.62;;;;;;;32.87;24.49;100734.16;5447604;32;34084;-77
2023/09/09 11:24:19;;;;;;;10.40;4.30;;;;;;;30.99;26.92;100737.63;5428569;32;34437;-73
2023/09/09 11:27:21;;;;;;;12.55;5.90;;;;;;;30.25;28.14;100741.91;5432402;32;33973;-78
2023/09/09 11:30:24;;;;;;;8.50;4.15;;;;;;;31.03;27.50;100741.66;5448679;32;35276;-68
2023/09/09 11:33:26;;;;;;;7.65;4.22;;;;;;;33.70;23.73;100728.84;5433924;32;35037;-69
2023/09/09 11:36:29;;;;;;;8.52;5.07;;;;;;;35.25;21.71;100730.59;5436409;32;34162;-81
2023/09/09 11:39:39;;;;;;;6.95;4.00;;;;;;;34.11;22.64;100728.78;5431679;32;35075;-71
2023/09/09 11:42:51;;;;;;;7.60;4.57;;;;;;;33.15;23.75;100725.13;5442509;32;33986;-73
2023/09/09 11:45:55;;;;;;;13.60;4.97;;;;;;;34.04;23.16;100718.91;5438489;32;34941;-76
2023/09/09 11:48:57;;;;;;;7.30;4.22;;;;;;;32.54;24.53;100728.41;5418796;32;34029;-73
2023/09/09 11:52:00;;;;;;;9.48;4.75;;;;;;;33.78;22.79;100722.38;5447161;32;34756;-74
2023/09/09 11:55:03;;;;;;;8.82;4.28;;;;;;;32.74;24.00;100716.84;5444644;32;35580;-76
2023/09/09 11:58:06;;;;;;;10.32;4.93;;;;;;;32.29;24.87;100727.06;5447279;32;34719;-73
2023/09/09 12:01:10;;;;;;;8.23;4.37;;;;;;;32.26;24.83;100713.84;5429915;32;34458;-73
2023/09/09 12:04:13;;;;;;;8.20;4.30;;;;;;;32.45;24.43;100712.38;5442801;32;33866;-72
2023/09/09 12:07:16;;;;;;;10.55;4.18;;;;;;;32.00;24.75;100711.69;5433047;32;35373;-75
2023/09/09 12:10:19;;;;;;;9.27;4.05;;;;;;;33.78;22.97;100695.94;5442610;32;34468;-76
2023/09/09 12:13:21;;;;;;;9.40;4.72;;;;;;;35.26;21.17;100697.56;5438058;32;34625;-74
2023/09/09 12:16:24;;;;;;;9.50;4.55;;;;;;;35.54;20.93;100693.72;5428715;32;34309;-72
2023/09/09 12:19:26;;;;;;;8.93;5.07;;;;;;;35.04;21.74;100693.44;5432002;32;34167;-76
2023/09/09 12:22:32;;;;;;;11.20;4.30;;;;;;;36.39;20.03;100686.16;5441276;32;34795;-76
2023/09/09 12:25:38;;;;;;;7.12;4.00;;;;;;;36.51;19.51;100687.09;5426906;32;35059;-73
2023/09/09 12:28:42;;;;;;;6.18;4.00;;;;;;;38.34;17.54;100688.22;5438002;32;35148;-74
2023/09/09 12:31:59;;;;;;;6.70;3.90;;;;;;;39.99;16.16;100674.06;5442916;32;34135;-77
2023/09/09 12:35:02;;;;;;;8.95;4.60;;;;;;;33.40;22.44;100688.22;5448544;32;35228;-76
2023/09/09 12:38:05;;;;;;;10.15;6.00;;;;;;;34.31;21.90;100676.16;5439753;32;33975;-76
2023/09/09 12:41:07;;;;;;;7.97;4.37;;;;;;;33.21;23.12;100672.59;5428354;32;32573;-77
2023/09/09 12:44:10;;;;;;;9.95;4.60;;;;;;;33.74;22.78;100674.75;5420435;32;34679;-75
2023/09/09 12:47:12;;;;;;;6.57;3.85;;;;;;;33.94;21.96;100668.34;5441763;32;34456;-72
2023/09/09 12:50:15;;;;;;;6.57;3.87;;;;;;;33.81;21.62;100665.53;5433392;32;34501;-73
2023/09/09 12:53:17;;;;;;;8.52;3.87;;;;;;;35.36;19.84;100667.09;5440419;32;34635;-72
2023/09/09 12:56:20;;;;;;;7.82;3.80;;;;;;;33.87;21.37;100664.72;5419243;32;34304;-76
2023/09/09 12:59:22;;;;;;;8.70;4.12;;;;;;;33.44;21.95;100661.44;5443195;32;34482;-77
2023/09/09 13:02:25;;;;;;;8.50;4.40;;;;;;;32.87;22.41;100657.94;5441527;32;35427;-76
2023/09/09 13:05:28;;;;;;;7.18;4.12;;;;;;;33.00;22.31;100653.63;5430129;32;35255;-77
2023/09/09 13:08:30;;;;;;;13.55;4.20;;;;;;;34.73;20.49;100647.66;5432260;32;35241;-76
2023/09/09 13:11:33;;;;;;;8.95;4.32;;;;;;;37.25;17.63;100643.44;5449349;32;33928;-72
2023/09/09 13:14:36;;;;;;;6.75;3.67;;;;;;;36.02;18.83;100652.31;5431416;32;34124;-74
2023/09/09 13:17:38;;;;;;;8.25;4.00;;;;;;;34.49;19.90;100651.88;5448368;32;35058;-75
2023/09/09 13:20:41;;;;;;;11.38;4.25;;;;;;;34.68;19.87;100651.00;5442396;32;34596;-72
2023/09/09 13:23:43;;;;;;;5.72;3.60;;;;;;;33.22;21.91;100655.22;5442684;32;34580;-75
2023/09/09 13:26:46;;;;;;;9.02;3.30;;;;;;;33.85;20.96;100639.56;5434078;32;34096;-75
2023/09/09 13:29:48;;;;;;;8.63;3.90;;;;;;;33.02;22.21;100637.91;5443839;32;35250;-73
2023/09/09 13:32:51;;;;;;;12.30;3.85;;;;;;;32.67;22.25;100640.59;5438148;32;35040;-75
2023/09/09 13:35:53;;;;;;;8.35;4.05;;;;;;;32.53;22.80;100642.38;5429553;32;35104;-74
2023/09/09 13:38:56;;;;;;;10.50;3.90;;;;;;;32.09;23.52;100648.03;5435610;32;33973;-75
2023/09/09 13:41:58;;;;;;;9.13;5.37;;;;;;;32.78;22.92;100636.47;5443984;32;34382;-72
2023/09/09 13:45:01;;;;;;;7.03;3.87;;;;;;;32.60;22.85;100637.00;5430195;32;35268;-73
2023/09/09 13:48:06;;;;;;;7.18;3.60;;;;;;;32.83;22.13;100632.12;5447794;32;36804;-73
2023/09/09 13:51:10;;;;;;;7.47;3.37;;;;;;;32.47;22.42;100634.16;5443354;32;35257;-77
2023/09/09 13:54:12;;;;;;;8.00;3.70;;;;;;;31.56;22.83;100641.97;5437726;32;33355;-73
2023/09/09 13:57:15;;;;;;;6.62;3.33;;;;;;;31.72;22.75;100643.59;5443723;32;34160;-76
2023/09/09 14:00:18;;;;;;;6.37;3.60;;;;;;;32.20;22.20;100642.06;5448756;32;34213;-72
2023/09/09 14:03:20;;;;;;;6.97;3.40;;;;;;;32.02;22.17;100636.25;5444049;32;35077;-76
2023/09/09 14:06:24;;;;;;;6.82;3.83;;;;;;;31.27;22.66;100640.97;5428828;32;34051;-76
2023/09/09 14:09:27;;;;;;;9.68;3.92;;;;;;;31.89;22.52;100646.97;5447307;32;34414;-72
2023/09/09 14:12:29;;;;;;;6.12;3.62;;;;;;;31.78;22.43;100642.84;5443142;32;35197;-76
2023/09/09 14:15:32;;;;;;;6.45;3.45;;;;;;;31.71;22.37;100650.91;5436005;32;34086;-76
2023/09/09 14:18:34;;;;;;;9.20;4.10;;;;;;;31.65;23.03;100640.81;5434141;32;34182;-72
2023/09/09 14:21:37;;;;;;;6.12;3.50;;;;;;;32.26;22.60;100635.81;5446755;32;35504;-76
2023/09/09 14:24:40;;;;;;;7.90;3.50;;;;;;;31.98;22.80;100634.94;5446355;32;35711;-76
2023/09/09 14:27:42;;;;;;;8.52;3.72;;;;;;;31.85;23.19;100629.34;5442864;32;34408;-77
2023/09/09 14:30:46;;;;;;;7.10;3.62;;;;;;;30.78;23.79;100626.22;5436391;32;35227;-77
2023/09/09 14:33:48;;;;;;;6.22;3.83;;;;;;;31.32;23.16;100617.84;5444151;32;34780;-77
2023/09/09 14:36:51;;;;;;;8.70;4.00;;;;;;;31.53;22.95;100626.03;5419474;32;34896;-77
2023/09/09 14:39:54;;;;;;;9.75;4.35;;;;;;;31.24;23.79;100622.34;5430818;32;34837;-77
2023/09/09 14:42:56;;;;;;;6.55;3.53;;;;;;;31.46;23.46;100612.38;5445086;32;34780;-76
2023/09/09 14:45:59;;;;;;;6.87;4.30;;;;;;;31.14;23.75;100621.75;5418772;32;34865;-74
2023/09/09 14:49:02;;;;;;;7.30;3.97;;;;;;;31.49;23.54;100624.72;5443941;32;34746;-73
2023/09/09 14:52:06;;;;;;;7.78;3.92;;;;;;;31.32;23.49;100618.69;5435564;32;34576;-78
2023/09/09 14:55:09;;;;;;;8.82;3.83;;;;;;;31.13;23.89;100619.25;5417746;32;34042;-78
2023/09/09 14:58:11;;;;;;;7.22;3.83;;;;;;;30.60;24.80;100608.44;5423720;32;35257;-73
2023/09/09 15:01:14;;;;;;;7.57;3.65;;;;;;;30.49;24.92;100611.59;5442917;32;34116;-77
2023/09/09 15:04:16;;;;;;;6.65;3.70;;;;;;;30.66;24.51;100613.13;5444917;32;34897;-73
2023/09/09 15:07:19;;;;;;;7.80;3.80;;;;;;;31.15;24.09;100609.03;5444135;32;34942;-74
2023/09/09 15:10:23;;;;;;;7.80;4.03;;;;;;;31.26;24.57;100609.41;5442976;32;34798;-72
2023/09/09 15:13:25;;;;;;;7.55;4.30;;;;;;;30.91;24.96;100608.28;5447165;32;34961;-72
2023/09/09 15:16:51;;;;;;;8.20;3.90;;;;;;;30.72;24.58;100609.69;5424865;32;34955;-72
2023/09/09 15:19:53;;;;;;;7.37;4.15;;;;;;;31.83;23.86;100605.09;5447265;32;34240;-72
2023/09/09 15:22:56;;;;;;;6.45;4.03;;;;;;;31.48;24.04;100604.03;5429554;32;34795;-76
2023/09/09 15:25:59;;;;;;;10.77;4.10;;;;;;;31.12;24.64;100596.69;5428448;32;34632;-72
2023/09/09 15:29:02;;;;;;;7.43;4.40;;;;;;;31.01;25.16;100594.44;5435341;32;34137;-72
2023/09/09 15:32:04;;;;;;;11.02;3.87;;;;;;;30.78;25.54;100588.25;5428418;32;34516;-72
2023/09/09 15:35:07;;;;;;;8.73;4.10;;;;;;;30.85;25.40;100594.59;5434437;32;34850;-75
2023/09/09 15:38:14;;;;;;;13.10;8.88;;;;;;;30.89;25.41;100596.78;5442361;32;34246;-76
2023/09/09 15:41:16;;;;;;;9.10;4.72;;;;;;;31.46;25.17;100604.22;5431156;32;34343;-73
2023/09/09 15:44:19;;;;;;;10.82;4.85;;;;;;;31.21;25.53;100600.13;5433754;32;34191;-76
2023/09/09 15:47:21;;;;;;;11.00;4.65;;;;;;;31.08;26.16;100595.38;5441760;32;35060;-76
2023/09/09 15:50:24;;;;;;;10.13;4.65;;;;;;;31.64;25.58;100595.66;5447243;32;34054;-73
2023/09/09 15:53:28;;;;;;;9.65;4.03;;;;;;;31.29;26.09;100600.03;5433772;32;34986;-76
2023/09/09 15:56:46;;;;;;;10.02;4.40;;;;;;;31.22;25.82;100589.06;5447365;32;34451;-77
2023/09/09 16:00:06;;;;;;;11.20;4.35;;;;;;;30.92;25.74;100595.56;5421675;32;35000;-76
2023/09/09 16:03:09;;;;;;;8.65;4.37;;;;;;;30.59;26.29;100601.31;5432728;32;35219;-72
2023/09/09 16:06:11;;;;;;;9.80;4.57;;;;;;;30.74;26.07;100599.50;5442886;32;34277;-75
2023/09/09 16:09:14;;;;;;;9.77;4.12;;;;;;;31.38;26.04;100595.38;5441416;32;34767;-74
2023/09/09 16:12:16;;;;;;;8.52;4.32;;;;;;;31.17;26.37;100599.69;5433606;32;34767;-74
2023/09/09 16:15:19;;;;;;;8.27;4.07;;;;;;;31.48;26.33;100601.31;5444186;32;35054;-77
2023/09/09 16:18:21;;;;;;;8.38;4.57;;;;;;;31.17;26.27;100599.69;5444616;32;34862;-74
2023/09/09 16:21:24;;;;;;;10.88;4.30;;;;;;;31.07;26.77;100604.53;5442702;32;35421;-74
2023/09/09 16:24:26;;;;;;;9.10;4.70;;;;;;;31.07;26.86;100598.28;5415873;32;34145;-77
2023/09/09 16:27:30;;;;;;;8.13;3.85;;;;;;;30.78;27.58;100607.25;5423032;32;34586;-76
2023/09/09 16:30:34;;;;;;;12.95;5.22;;;;;;;30.79;27.41;100600.81;5442628;32;34620;-76
2023/09/09 16:33:36;;;;;;;9.20;4.00;;;;;;;30.88;27.19;100599.69;5435106;32;33250;-75
2023/09/09 16:36:39;;;;;;;10.57;4.70;;;;;;;30.97;26.95;100602.09;5442507;32;34774;-72
2023/09/09 16:39:41;;;;;;;9.43;4.20;;;;;;;29.61;29.95;100601.22;5417849;32;35364;-72
2023/09/09 16:42:44;;;;;;;10.57;4.70;;;;;;;30.54;28.68;100594.75;5445287;32;34176;-75
2023/09/09 16:45:46;;;;;;;10.95;4.30;;;;;;;29.61;30.20;100606.63;5444730;32;34596;-72
2023/09/09 16:48:49;;;;;;;12.60;6.60;;;;;;;29.32;30.97;100604.56;5448725;32;33902;-73
2023/09/09 16:51:51;;;;;;;9.73;5.10;;;;;;;29.20;31.62;100605.97;5431234;32;34402;-73
2023/09/09 16:54:53;;;;;;;9.40;5.30;;;;;;;29.02;32.37;100600.78;5436245;32;35274;-73
2023/09/09 16:57:56;;;;;;;12.80;5.70;;;;;;;29.17;32.56;100614.41;5444791;32;34509;-73
2023/09/09 17:00:58;;;;;;;9.18;4.93;;;;;;;29.06;32.56;100610.25;5432892;32;34256;-73
2023/09/09 17:04:01;;;;;;;7.43;4.15;;;;;;;29.32;30.53;100613.53;5436546;32;34090;-73
2023/09/09 17:07:04;;;;;;;12.18;5.03;;;;;;;29.56;28.92;100609.87;5429818;32;35043;-76
2023/09/09 17:10:06;;;;;;;21.70;11.98;;;;;;;29.22;32.17;100615.59;5420757;32;34627;-73
2023/09/09 17:13:10;;;;;;;15.20;6.05;;;;;;;29.07;32.32;100610.06;5444574;32;34757;-72
2023/09/09 17:16:12;;;;;;;11.93;5.50;;;;;;;28.75;33.37;100616.37;5434615;32;34638;-73
2023/09/09 17:19:18;;;;;;;11.50;5.50;;;;;;;28.73;33.85;100614.88;5445379;32;34505;-75
2023/09/09 17:22:33;;;;;;;13.35;5.75;;;;;;;28.79;33.61;100616.91;5434927;32;34029;-76
2023/09/09 17:25:35;;;;;;;21.58;5.47;;;;;;;28.46;34.14;100627.72;5436563;32;34570;-76
2023/09/09 17:28:38;;;;;;;12.65;5.18;;;;;;;28.52;34.25;100621.66;5434956;32;34070;-76
2023/09/09 17:31:40;;;;;;;11.95;5.05;;;;;;;28.40;34.77;100633.81;5408816;32;34852;-74
2023/09/09 17:34:57;;;;;;;13.13;5.30;;;;;;;28.33;34.68;100624.69;5431856;32;34699;-76
2023/09/09 17:38:12;;;;;;;11.55;5.05;;;;;;;27.93;35.70;100639.84;5443552;32;34562;-76
2023/09/09 17:41:14;;;;;;;14.55;4.93;;;;;;;27.98;35.12;100640.19;5408274;32;34706;-73
2023/09/09 17:44:17;;;;;;;10.57;5.75;;;;;;;27.73;35.59;100647.41;5443849;32;34665;-76
2023/09/09 17:47:19;;;;;;;11.27;5.35;;;;;;;27.50;35.82;100648.97;5425629;32;34550;-76
2023/09/09 17:50:22;;;;;;;17.15;5.70;;;;;;;27.20;37.00;100651.22;5428159;32;34665;-76
2023/09/09 17:53:24;;;;;;;12.77;5.10;;;;;;;27.36;36.92;100657.69;5441364;32;34386;-75
2023/09/09 17:56:27;;;;;;;11.57;5.72;;;;;;;26.99;37.46;100657.00;5404811;32;35220;-75
2023/09/09 17:59:29;;;;;;;12.45;5.93;;;;;;;26.69;37.67;100673.63;5445316;32;35335;-72
2023/09/09 18:02:32;;;;;;;14.55;5.22;;;;;;;27.07;37.46;100666.16;5445788;32;34802;-75
2023/09/09 18:05:35;;;;;;;11.32;5.50;;;;;;;27.12;37.12;100663.84;5416862;32;34195;-72
2023/09/09 18:08:38;;;;;;;16.05;6.47;;;;;;;27.19;37.10;100668.44;5446147;32;34084;-73
2023/09/09 18:11:42;;;;;;;13.20;6.00;;;;;;;27.63;35.06;100670.09;5428954;32;34969;-75
2023/09/09 18:14:44;;;;;;;12.32;5.70;;;;;;;27.16;36.96;100681.37;5448293;32;34833;-77
2023/09/09 18:17:47;;;;;;;11.95;6.97;;;;;;;26.77;37.87;100672.84;5436321;32;34363;-73
2023/09/09 18:20:50;;;;;;;13.20;5.78;;;;;;;27.16;37.47;100674.13;5430149;32;34441;-73
2023/09/09 18:23:54;;;;;;;12.43;5.20;;;;;;;26.61;38.37;100679.81;5448534;32;35173;-72
2023/09/09 18:26:56;;;;;;;11.70;5.75;;;;;;;27.43;36.91;100678.47;5428560;32;35484;-74
2023/09/09 18:30:00;;;;;;;16.37;5.78;;;;;;;26.88;37.86;100686.91;5448185;32;34542;-76
2023/09/09 18:33:02;;;;;;;11.52;5.68;;;;;;;26.76;38.14;100690.87;5434173;32;34722;-71
2023/09/09 18:36:05;;;;;;;11.10;6.03;;;;;;;26.51;39.11;100699.75;5445512;32;34297;-74
2023/09/09 18:39:07;;;;;;;11.80;5.95;;;;;;;26.50;39.25;100698.06;5434393;32;34589;-75
2023/09/09 18:42:10;;;;;;;11.60;6.12;;;;;;;26.19;39.54;100698.41;5443534;32;34530;-72
2023/09/09 18:45:12;;;;;;;11.05;5.47;;;;;;;26.11;39.73;100701.03;5449337;32;35546;-72
2023/09/09 18:48:16;;;;;;;13.95;5.85;;;;;;;26.44;39.15;100692.28;5434309;32;34744;-72
2023/09/09 18:51:20;;;;;;;15.05;5.53;;;;;;;26.49;39.09;100704.47;5447200;32;34678;-75
2023/09/09 18:54:23;;;;;;;11.35;5.50;;;;;;;26.38;39.16;100702.81;5445027;32;34550;-76
2023/09/09 18:57:25;;;;;;;12.27;5.60;;;;;;;26.20;39.63;100708.19;5422179;32;34595;-73
2023/09/09 19:00:28;;;;;;;12.23;6.40;;;;;;;26.19;39.85;100709.19;5433721;32;34285;-76
2023/09/09 19:03:30;;;;;;;13.68;6.62;;;;;;;25.24;41.47;100715.75;5435892;32;34704;-73
2023/09/09 19:06:33;;;;;;;12.27;6.18;;;;;;;25.25;41.77;100712.09;5429595;32;35127;-73
2023/09/09 19:09:35;;;;;;;12.63;6.20;;;;;;;26.05;40.35;100705.19;5430675;32;34671;-75
2023/09/09 19:12:38;;;;;;;12.15;5.70;;;;;;;25.99;40.11;100707.66;5447388;32;34650;-73
2023/09/09 19:15:40;;;;;;;;;;;;;;;25.71;41.13;100714.87;5436771;32;34716;-75
2023/09/09 19:18:42;;;;;;;15.45;6.25;;;;;;;26.40;39.70;100707.06;5416248;32;33176;-74
2023/09/09 19:21:45;;;;;;;16.20;6.45;;;;;;;26.47;39.43;100712.72;5433613;32;34905;-72
2023/09/09 19:24:53;;;;;;;12.73;6.30;;;;;;;26.16;40.02;100712.22;5445192;32;34381;-73
2023/09/09 19:27:55;;;;;;;13.82;5.70;;;;;;;26.10;40.27;100719.06;5425389;32;36182;-75
2023/09/09 19:30:58;;;;;;;16.83;6.32;;;;;;;25.18;41.91;100719.03;5442892;32;34948;-75
2023/09/09 19:34:01;;;;;;;14.77;6.20;;;;;;;24.89;42.83;100720.91;5437911;32;34511;-74
2023/09/09 19:37:03;;;;;;;12.23;6.05;;;;;;;25.63;41.47;100712.91;5442441;32;33995;-71
2023/09/09 19:40:06;;;;;;;13.95;5.97;;;;;;;25.34;42.24;100716.59;5430276;32;35061;-76
2023/09/09 19:43:08;;;;;;;16.90;6.12;;;;;;;25.00;43.18;100705.47;5445978;32;34794;-75
2023/09/09 19:46:11;;;;;;;14.30;6.35;;;;;;;25.31;42.62;100707.94;5428762;32;35540;-75
2023/09/09 19:49:14;;;;;;;14.05;6.30;;;;;;;25.47;41.67;100716.25;5448251;32;35262;-75
2023/09/09 19:52:17;;;;;;;16.67;6.12;;;;;;;25.40;42.28;100723.22;5428408;32;34818;-73
2023/09/09 19:55:19;;;;;;;;;;;;;;;25.15;42.84;100723.88;5434886;32;33985;-76
2023/09/09 19:58:21;;;;;;;13.35;6.28;;;;;;;25.40;42.20;100725.91;5433369;32;35082;-72
2023/09/09 20:01:25;;;;;;;16.77;6.37;;;;;;;24.82;43.43;100715.28;5438721;32;34559;-72
2023/09/09 20:04:28;;;;;;;13.48;6.57;;;;;;;24.35;44.39;100727.75;5447624;32;35005;-72
2023/09/09 20:07:31;;;;;;;11.68;5.97;;;;;;;24.01;45.50;100728.06;5439663;32;35115;-75
2023/09/09 20:10:34;;;;;;;14.27;6.25;;;;;;;24.78;43.88;100725.44;5419666;32;34888;-73
2023/09/09 20:13:37;;;;;;;;;;;;;;;24.85;44.09;100726.56;5432725;32;34099;-72
2023/09/09 20:16:40;;;;;;;15.48;6.22;;;;;;;24.98;43.27;100718.19;5445710;32;34847;-73
2023/09/09 20:19:43;;;;;;;14.50;6.00;;;;;;;24.44;44.73;100724.22;5443806;32;35113;-76
2023/09/09 20:22:45;;;;;;;9.60;5.57;;;;;;;24.33;45.22;100725.16;5431493;32;34366;-72
2023/09/09 20:25:48;;;;;;;;;;;;;;;24.99;43.86;100714.53;5432806;32;33911;-73
2023/09/09 20:28:50;;;;;;;11.48;6.05;;;;;;;25.30;42.63;100725.94;5431766;32;34020;-75
2023/09/09 20:31:53;;;;;;;11.88;5.53;;;;;;;25.30;43.28;100727.78;5408298;32;34070;-75
2023/09/09 20:34:55;;;;;;;13.57;5.95;;;;;;;25.07;43.74;100733.50;5443715;32;34879;-72
2023/09/09 20:38:11;;;;;;;14.63;6.90;;;;;;;25.08;43.46;100728.97;5442027;32;34352;-74
2023/09/09 20:41:13;;;;;;;13.35;6.65;;;;;;;23.98;46.48;100744.47;5445273;32;35008;-74
2023/09/09 20:44:16;;;;;;;;;;;;;;;23.92;46.95;100751.25;5429289;32;34930;-76
2023/09/09 20:47:18;;;;;;;11.05;5.82;;;;;;;23.59;48.07;100748.84;5446106;32;34331;-75
2023/09/09 20:50:23;;;;;;;13.27;5.72;;;;;;;24.14;46.63;100746.63;5417737;32;34338;-75
2023/09/09 20:53:25;;;;;;;17.35;6.50;;;;;;;24.71;44.97;100745.84;5434661;32;34748;-74
2023/09/09 20:56:30;;;;;;;13.23;5.68;;;;;;;24.73;44.95;100748.38;5441879;32;34418;-75
2023/09/09 20:59:33;;;;;;;11.82;6.28;;;;;;;24.46;44.96;100759.84;5443117;32;34341;-75
2023/09/09 21:02:38;;;;;;;11.32;5.45;;;;;;;23.71;45.87;100756.69;5445421;32;35184;-72
2023/09/09 21:05:41;;;;;;;15.00;6.07;;;;;;;23.76;46.51;100761.63;5438098;32;36787;-75
2023/09/09 21:08:43;;;;;;;10.13;5.55;;;;;;;23.38;47.03;100756.91;5444119;32;34010;-74
2023/09/09 21:11:45;;;;;;;10.20;5.65;;;;;;;23.62;46.44;100748.59;5440298;32;35321;-73
2023/09/09 21:14:48;;;;;;;12.77;5.75;;;;;;;23.23;46.94;100753.72;5435714;32;34744;-75
2023/09/09 21:17:50;;;;;;;12.37;5.62;;;;;;;23.54;46.07;100754.59;5429488;32;34664;-72
2023/09/09 21:20:53;;;;;;;11.30;5.53;;;;;;;23.43;46.29;100754.69;5441537;32;35272;-72
2023/09/09 21:23:55;;;;;;;20.25;5.68;;;;;;;23.28;46.85;100753.34;5432937;32;34786;-75
2023/09/09 21:26:57;;;;;;;;;;;;;;;23.75;45.46;100765.28;5415659;32;34736;-75
2023/09/09 21:30:00;;;;;;;13.60;5.78;;;;;;;23.94;45.35;100757.31;5421353;32;34924;-72
2023/09/09 21:33:04;;;;;;;11.88;5.50;;;;;;;23.33;46.77;100754.66;5432643;32;34809;-72
2023/09/09 21:36:08;;;;;;;10.43;5.22;;;;;;;23.84;45.70;100758.28;5447675;32;34601;-73
2023/09/09 21:39:10;;;;;;;10.27;5.65;;;;;;;23.30;46.47;100760.25;5445952;32;34136;-72
2023/09/09 21:42:15;;;;;;;12.32;5.28;;;;;;;23.62;45.64;100753.94;5442672;32;34912;-76
2023/09/09 21:45:18;;;;;;;10.07;5.20;;;;;;;23.85;45.17;100759.97;5422879;32;34244;-72
2023/09/09 21:48:24;;;;;;;14.38;5.30;;;;;;;23.42;46.60;100761.88;5433499;32;35592;-75
2023/09/09 21:51:27;;;;;;;11.15;5.60;;;;;;;23.57;46.28;100756.16;5429849;32;34693;-75
2023/09/09 21:54:29;;;;;;;9.90;5.45;;;;;;;23.26;47.09;100758.00;5445113;32;35235;-76
2023/09/09 21:57:31;;;;;;;11.88;6.25;;;;;;;23.33;46.73;100761.84;5436087;32;34240;-73
2023/09/09 22:00:34;;;;;;;11.65;5.53;;;;;;;22.91;47.96;100759.16;5446564;32;34990;-74
2023/09/09 22:03:37;;;;;;;10.30;5.60;;;;;;;22.93;47.83;100763.44;5434177;32;34503;-72
2023/09/09 22:06:39;;;;;;;11.40;5.90;;;;;;;23.14;47.54;100752.69;5431023;32;34728;-72
2023/09/09 22:09:42;;;;;;;10.35;6.15;;;;;;;23.50;46.84;100759.37;5443277;32;34186;-72
2023/09/09 22:12:45;;;;;;;15.02;6.10;;;;;;;22.69;48.97;100766.31;5438049;32;34839;-76
2023/09/09 22:15:47;;;;;;;;;;;;;;;22.39;49.88;100766.19;5444790;32;34065;-75
2023/09/09 22:18:49;;;;;;;15.03;6.03;;;;;;;22.60;49.96;100764.38;5446168;32;34277;-75
2023/09/09 22:21:52;;;;;;;10.05;5.78;;;;;;;23.01;48.83;100759.25;5445942;32;34805;-76
2023/09/09 22:24:54;;;;;;;12.10;5.68;;;;;;;22.78;49.44;100755.78;5445519;32;34829;-76
2023/09/09 22:27:56;;;;;;;9.30;5.70;;;;;;;23.22;48.50;100752.03;5425473;32;34614;-72
2023/09/09 22:30:59;;;;;;;9.55;5.93;;;;;;;23.39;47.87;100754.12;5432258;32;34400;-74
2023/09/09 22:34:01;;;;;;;11.68;6.22;;;;;;;23.00;49.07;100755.72;5449411;32;34617;-72